Pinellas Park, Florida
Current Conditions -  °F | °C
As of 6:53 AM on Friday 31 Oct 2014 (Local Time) from KPIE Reporting Station
Clear Clear  
Wind Chill: 68°   Ceiling: Unl
Heat Index: 68°   Visibility: 10mi
Dew Point: 55°   Wind: 10mph
Humidity: 63%   Direction: 360°N
Pressure: 29.87"   Gusts: NA
Location:  27.84°N, 82.7°W
Report Text: KPIE 311053Z 36009KT 10SM CLR 20/13 A2987 RMK AO2 SLP113 T02000128
Loading
Personal Weather Stations






























Interactive Weather Map
Tropical Storm Tracking
New forecast layout! Learn more

10-Day Weather Forecast

Advertisements
Track Severe Weather on mobile